sensor_id;sensor_type;location;lat;lon;timestamp;P1;durP1;ratioP1;P2;durP2;ratioP2
32186;SDS011;18686;53.084;8.872;2024-03-25T00:01:42;57.67;;;13.02;;
32186;SDS011;18686;53.084;8.872;2024-03-25T00:04:09;46.15;;;11.73;;
32186;SDS011;18686;53.084;8.872;2024-03-25T00:06:35;47.05;;;10.98;;
32186;SDS011;18686;53.084;8.872;2024-03-25T00:09:03;50.78;;;12.77;;
32186;SDS011;18686;53.084;8.872;2024-03-25T00:11:30;57.75;;;12.93;;
32186;SDS011;18686;53.084;8.872;2024-03-25T00:13:57;53.30;;;13.27;;
32186;SDS011;18686;53.084;8.872;2024-03-25T00:16:24;52.67;;;13.48;;
32186;SDS011;18686;53.084;8.872;2024-03-25T00:18:52;57.10;;;14.18;;
32186;SDS011;18686;53.084;8.872;2024-03-25T00:21:19;63.00;;;14.93;;
32186;SDS011;18686;53.084;8.872;2024-03-25T00:23:46;58.08;;;13.98;;
32186;SDS011;18686;53.084;8.872;2024-03-25T00:26:12;57.35;;;13.18;;
32186;SDS011;18686;53.084;8.872;2024-03-25T00:28:39;54.05;;;12.05;;
32186;SDS011;18686;53.084;8.872;2024-03-25T00:31:05;38.78;;;10.98;;
32186;SDS011;18686;53.084;8.872;2024-03-25T00:33:33;47.97;;;10.73;;
32186;SDS011;18686;53.084;8.872;2024-03-25T00:36:00;41.30;;;9.75;;
32186;SDS011;18686;53.084;8.872;2024-03-25T00:38:28;52.05;;;11.63;;
32186;SDS011;18686;53.084;8.872;2024-03-25T00:40:54;45.17;;;11.35;;
32186;SDS011;18686;53.084;8.872;2024-03-25T00:43:21;40.20;;;10.15;;
32186;SDS011;18686;53.084;8.872;2024-03-25T00:45:47;47.70;;;10.40;;
32186;SDS011;18686;53.084;8.872;2024-03-25T00:48:14;44.20;;;10.73;;
32186;SDS011;18686;53.084;8.872;2024-03-25T00:50:41;40.65;;;9.70;;
32186;SDS011;18686;53.084;8.872;2024-03-25T00:53:09;36.58;;;8.68;;
32186;SDS011;18686;53.084;8.872;2024-03-25T00:55:35;32.22;;;8.60;;
32186;SDS011;18686;53.084;8.872;2024-03-25T00:58:04;41.22;;;9.73;;
32186;SDS011;18686;53.084;8.872;2024-03-25T01:00:31;36.13;;;8.98;;
32186;SDS011;18686;53.084;8.872;2024-03-25T01:02:58;33.53;;;7.97;;
32186;SDS011;18686;53.084;8.872;2024-03-25T01:05:24;31.67;;;7.80;;
32186;SDS011;18686;53.084;8.872;2024-03-25T01:07:51;38.95;;;8.63;;
32186;SDS011;18686;53.084;8.872;2024-03-25T01:10:19;41.20;;;8.13;;
32186;SDS011;18686;53.084;8.872;2024-03-25T01:12:46;39.15;;;8.90;;
32186;SDS011;18686;53.084;8.872;2024-03-25T01:15:13;38.85;;;9.25;;
32186;SDS011;18686;53.084;8.872;2024-03-25T01:17:40;42.08;;;10.55;;
32186;SDS011;18686;53.084;8.872;2024-03-25T01:20:06;55.55;;;13.77;;
32186;SDS011;18686;53.084;8.872;2024-03-25T01:22:34;49.72;;;15.45;;
32186;SDS011;18686;53.084;8.872;2024-03-25T01:25:01;52.00;;;14.95;;
32186;SDS011;18686;53.084;8.872;2024-03-25T01:27:29;58.33;;;14.85;;
32186;SDS011;18686;53.084;8.872;2024-03-25T01:29:55;78.47;;;16.33;;
32186;SDS011;18686;53.084;8.872;2024-03-25T01:32:23;52.42;;;14.10;;
32186;SDS011;18686;53.084;8.872;2024-03-25T01:34:49;62.72;;;14.45;;
32186;SDS011;18686;53.084;8.872;2024-03-25T01:37:16;104.40;;;23.30;;
32186;SDS011;18686;53.084;8.872;2024-03-25T01:39:43;97.65;;;23.65;;
32186;SDS011;18686;53.084;8.872;2024-03-25T01:42:10;101.47;;;25.80;;
32186;SDS011;18686;53.084;8.872;2024-03-25T01:44:38;148.48;;;34.45;;
32186;SDS011;18686;53.084;8.872;2024-03-25T01:47:05;115.57;;;27.25;;
32186;SDS011;18686;53.084;8.872;2024-03-25T01:49:31;107.97;;;24.48;;
32186;SDS011;18686;53.084;8.872;2024-03-25T01:51:58;95.80;;;22.30;;
32186;SDS011;18686;53.084;8.872;2024-03-25T01:54:25;82.45;;;18.52;;
32186;SDS011;18686;53.084;8.872;2024-03-25T01:56:52;75.80;;;17.23;;
32186;SDS011;18686;53.084;8.872;2024-03-25T01:59:21;51.03;;;12.93;;
32186;SDS011;18686;53.084;8.872;2024-03-25T02:01:50;48.63;;;11.45;;
32186;SDS011;18686;53.084;8.872;2024-03-25T02:04:17;54.90;;;11.60;;
32186;SDS011;18686;53.084;8.872;2024-03-25T02:06:44;56.05;;;12.48;;
32186;SDS011;18686;53.084;8.872;2024-03-25T02:09:11;52.55;;;10.65;;
32186;SDS011;18686;53.084;8.872;2024-03-25T02:11:39;48.92;;;10.32;;
32186;SDS011;18686;53.084;8.872;2024-03-25T02:14:06;48.50;;;10.38;;
32186;SDS011;18686;53.084;8.872;2024-03-25T02:16:34;50.47;;;10.25;;
32186;SDS011;18686;53.084;8.872;2024-03-25T02:19:01;43.95;;;9.90;;
32186;SDS011;18686;53.084;8.872;2024-03-25T02:21:30;44.13;;;9.48;;
32186;SDS011;18686;53.084;8.872;2024-03-25T02:23:57;50.50;;;9.60;;
32186;SDS011;18686;53.084;8.872;2024-03-25T02:26:28;55.83;;;9.98;;
32186;SDS011;18686;53.084;8.872;2024-03-25T02:28:55;49.10;;;9.45;;
32186;SDS011;18686;53.084;8.872;2024-03-25T02:31:22;58.35;;;9.43;;
32186;SDS011;18686;53.084;8.872;2024-03-25T02:33:48;50.97;;;9.25;;
32186;SDS011;18686;53.084;8.872;2024-03-25T02:36:15;51.55;;;9.57;;
32186;SDS011;18686;53.084;8.872;2024-03-25T02:38:42;42.20;;;8.95;;
32186;SDS011;18686;53.084;8.872;2024-03-25T02:41:09;47.78;;;9.77;;
32186;SDS011;18686;53.084;8.872;2024-03-25T02:43:38;50.80;;;10.25;;
32186;SDS011;18686;53.084;8.872;2024-03-25T02:46:05;36.05;;;8.88;;
32186;SDS011;18686;53.084;8.872;2024-03-25T02:48:32;46.65;;;10.40;;
32186;SDS011;18686;53.084;8.872;2024-03-25T02:50:59;49.38;;;10.13;;
32186;SDS011;18686;53.084;8.872;2024-03-25T02:53:25;50.40;;;10.70;;
32186;SDS011;18686;53.084;8.872;2024-03-25T02:55:52;54.92;;;10.43;;
32186;SDS011;18686;53.084;8.872;2024-03-25T02:58:18;59.17;;;11.07;;
32186;SDS011;18686;53.084;8.872;2024-03-25T03:00:47;49.33;;;10.40;;
32186;SDS011;18686;53.084;8.872;2024-03-25T03:03:13;38.97;;;10.30;;
32186;SDS011;18686;53.084;8.872;2024-03-25T03:05:40;51.85;;;10.02;;
32186;SDS011;18686;53.084;8.872;2024-03-25T03:08:06;44.95;;;10.32;;
32186;SDS011;18686;53.084;8.872;2024-03-25T03:10:34;46.85;;;9.68;;
32186;SDS011;18686;53.084;8.872;2024-03-25T03:13:00;51.53;;;9.52;;
32186;SDS011;18686;53.084;8.872;2024-03-25T03:15:27;51.33;;;10.00;;
32186;SDS011;18686;53.084;8.872;2024-03-25T03:17:55;50.65;;;9.88;;
32186;SDS011;18686;53.084;8.872;2024-03-25T03:20:22;43.75;;;9.15;;
32186;SDS011;18686;53.084;8.872;2024-03-25T03:22:48;32.40;;;9.50;;
32186;SDS011;18686;53.084;8.872;2024-03-25T03:25:15;48.95;;;9.85;;
32186;SDS011;18686;53.084;8.872;2024-03-25T03:27:42;41.55;;;8.95;;
32186;SDS011;18686;53.084;8.872;2024-03-25T03:30:09;48.30;;;10.15;;
32186;SDS011;18686;53.084;8.872;2024-03-25T03:32:36;54.75;;;10.15;;
32186;SDS011;18686;53.084;8.872;2024-03-25T03:35:05;50.35;;;9.90;;
32186;SDS011;18686;53.084;8.872;2024-03-25T03:37:32;47.55;;;9.63;;
32186;SDS011;18686;53.084;8.872;2024-03-25T03:39:59;60.80;;;11.38;;
32186;SDS011;18686;53.084;8.872;2024-03-25T03:42:26;54.53;;;10.75;;
32186;SDS011;18686;53.084;8.872;2024-03-25T03:44:53;56.72;;;11.27;;
32186;SDS011;18686;53.084;8.872;2024-03-25T03:47:19;53.08;;;9.82;;
32186;SDS011;18686;53.084;8.872;2024-03-25T03:49:46;52.88;;;10.25;;
32186;SDS011;18686;53.084;8.872;2024-03-25T03:52:14;45.97;;;9.57;;
32186;SDS011;18686;53.084;8.872;2024-03-25T03:54:41;53.83;;;10.85;;
32186;SDS011;18686;53.084;8.872;2024-03-25T03:57:07;57.40;;;9.85;;
32186;SDS011;18686;53.084;8.872;2024-03-25T03:59:34;49.58;;;10.07;;
32186;SDS011;18686;53.084;8.872;2024-03-25T04:02:00;28.73;;;8.15;;
32186;SDS011;18686;53.084;8.872;2024-03-25T04:04:28;54.00;;;10.10;;
32186;SDS011;18686;53.084;8.872;2024-03-25T04:06:54;41.88;;;9.43;;
32186;SDS011;18686;53.084;8.872;2024-03-25T04:09:23;55.08;;;10.75;;
32186;SDS011;18686;53.084;8.872;2024-03-25T04:11:49;77.95;;;11.57;;
32186;SDS011;18686;53.084;8.872;2024-03-25T04:14:18;59.67;;;11.90;;
32186;SDS011;18686;53.084;8.872;2024-03-25T04:16:44;50.58;;;11.07;;
32186;SDS011;18686;53.084;8.872;2024-03-25T04:19:12;46.90;;;11.13;;
32186;SDS011;18686;53.084;8.872;2024-03-25T04:21:38;71.07;;;17.35;;
32186;SDS011;18686;53.084;8.872;2024-03-25T04:24:06;57.00;;;12.60;;
32186;SDS011;18686;53.084;8.872;2024-03-25T04:26:33;46.40;;;10.38;;
32186;SDS011;18686;53.084;8.872;2024-03-25T04:29:00;73.70;;;11.75;;
32186;SDS011;18686;53.084;8.872;2024-03-25T04:31:27;64.13;;;12.05;;
32186;SDS011;18686;53.084;8.872;2024-03-25T04:33:54;56.38;;;11.57;;
32186;SDS011;18686;53.084;8.872;2024-03-25T04:36:21;58.58;;;11.80;;
32186;SDS011;18686;53.084;8.872;2024-03-25T04:38:48;39.10;;;10.55;;
32186;SDS011;18686;53.084;8.872;2024-03-25T04:41:15;52.70;;;10.80;;
32186;SDS011;18686;53.084;8.872;2024-03-25T04:43:43;62.97;;;11.90;;
32186;SDS011;18686;53.084;8.872;2024-03-25T04:46:09;61.70;;;11.88;;
32186;SDS011;18686;53.084;8.872;2024-03-25T04:48:35;65.40;;;12.35;;
32186;SDS011;18686;53.084;8.872;2024-03-25T04:51:01;53.35;;;11.43;;
32186;SDS011;18686;53.084;8.872;2024-03-25T04:53:28;57.03;;;10.98;;
32186;SDS011;18686;53.084;8.872;2024-03-25T04:55:54;55.30;;;12.50;;
32186;SDS011;18686;53.084;8.872;2024-03-25T04:58:20;67.45;;;11.85;;
32186;SDS011;18686;53.084;8.872;2024-03-25T05:00:48;52.28;;;11.85;;
32186;SDS011;18686;53.084;8.872;2024-03-25T05:03:14;57.22;;;11.00;;
32186;SDS011;18686;53.084;8.872;2024-03-25T05:05:41;58.08;;;10.45;;
32186;SDS011;18686;53.084;8.872;2024-03-25T05:08:07;55.30;;;10.65;;
32186;SDS011;18686;53.084;8.872;2024-03-25T05:10:33;46.65;;;9.82;;
32186;SDS011;18686;53.084;8.872;2024-03-25T05:13:00;78.82;;;16.08;;
32186;SDS011;18686;53.084;8.872;2024-03-25T05:15:26;61.47;;;15.48;;
32186;SDS011;18686;53.084;8.872;2024-03-25T05:17:55;55.30;;;11.90;;
32186;SDS011;18686;53.084;8.872;2024-03-25T05:20:21;54.97;;;12.27;;
32186;SDS011;18686;53.084;8.872;2024-03-25T05:22:47;57.97;;;10.82;;
32186;SDS011;18686;53.084;8.872;2024-03-25T05:25:14;60.78;;;12.02;;
32186;SDS011;18686;53.084;8.872;2024-03-25T05:27:40;66.90;;;12.02;;
32186;SDS011;18686;53.084;8.872;2024-03-25T05:30:07;61.00;;;11.95;;
32186;SDS011;18686;53.084;8.872;2024-03-25T05:32:33;49.35;;;9.68;;
32186;SDS011;18686;53.084;8.872;2024-03-25T05:35:02;60.38;;;10.75;;
32186;SDS011;18686;53.084;8.872;2024-03-25T05:37:29;54.13;;;10.35;;
32186;SDS011;18686;53.084;8.872;2024-03-25T05:39:56;62.53;;;11.80;;
32186;SDS011;18686;53.084;8.872;2024-03-25T05:42:22;61.42;;;13.65;;
32186;SDS011;18686;53.084;8.872;2024-03-25T05:44:48;66.82;;;11.73;;
32186;SDS011;18686;53.084;8.872;2024-03-25T05:47:14;65.75;;;14.48;;
32186;SDS011;18686;53.084;8.872;2024-03-25T05:49:41;62.75;;;14.10;;
32186;SDS011;18686;53.084;8.872;2024-03-25T05:52:08;41.58;;;9.95;;
32186;SDS011;18686;53.084;8.872;2024-03-25T05:54:35;56.17;;;10.05;;
32186;SDS011;18686;53.084;8.872;2024-03-25T05:57:01;62.88;;;11.50;;
32186;SDS011;18686;53.084;8.872;2024-03-25T05:59:27;82.53;;;12.35;;
32186;SDS011;18686;53.084;8.872;2024-03-25T06:01:54;68.72;;;12.30;;
32186;SDS011;18686;53.084;8.872;2024-03-25T06:04:20;69.25;;;10.57;;
32186;SDS011;18686;53.084;8.872;2024-03-25T06:06:46;61.53;;;9.70;;
32186;SDS011;18686;53.084;8.872;2024-03-25T06:09:14;88.05;;;14.43;;
32186;SDS011;18686;53.084;8.872;2024-03-25T06:11:40;49.97;;;10.27;;
32186;SDS011;18686;53.084;8.872;2024-03-25T06:14:06;63.97;;;10.10;;
32186;SDS011;18686;53.084;8.872;2024-03-25T06:16:33;70.78;;;11.73;;
32186;SDS011;18686;53.084;8.872;2024-03-25T06:18:59;70.43;;;11.20;;
32186;SDS011;18686;53.084;8.872;2024-03-25T06:21:25;66.88;;;11.50;;
32186;SDS011;18686;53.084;8.872;2024-03-25T06:23:51;59.35;;;11.55;;
32186;SDS011;18686;53.084;8.872;2024-03-25T06:26:19;51.35;;;9.93;;
32186;SDS011;18686;53.084;8.872;2024-03-25T06:28:45;59.60;;;9.55;;
32186;SDS011;18686;53.084;8.872;2024-03-25T06:31:12;62.25;;;10.23;;
32186;SDS011;18686;53.084;8.872;2024-03-25T06:33:56;57.45;;;9.45;;
32186;SDS011;18686;53.084;8.872;2024-03-25T06:39:07;60.55;;;10.90;;
32186;SDS011;18686;53.084;8.872;2024-03-25T06:41:34;56.63;;;9.98;;
32186;SDS011;18686;53.084;8.872;2024-03-25T06:44:01;52.35;;;10.52;;
32186;SDS011;18686;53.084;8.872;2024-03-25T06:46:27;62.70;;;11.43;;
32186;SDS011;18686;53.084;8.872;2024-03-25T06:48:54;46.00;;;9.90;;
32186;SDS011;18686;53.084;8.872;2024-03-25T06:51:20;59.50;;;8.77;;
32186;SDS011;18686;53.084;8.872;2024-03-25T06:53:46;54.45;;;9.45;;
32186;SDS011;18686;53.084;8.872;2024-03-25T06:56:13;70.95;;;12.05;;
32186;SDS011;18686;53.084;8.872;2024-03-25T06:58:40;57.28;;;10.95;;
32186;SDS011;18686;53.084;8.872;2024-03-25T07:01:07;60.90;;;9.30;;
32186;SDS011;18686;53.084;8.872;2024-03-25T07:03:34;56.45;;;9.82;;
32186;SDS011;18686;53.084;8.872;2024-03-25T07:06:01;40.60;;;8.70;;
32186;SDS011;18686;53.084;8.872;2024-03-25T07:08:27;52.35;;;9.68;;
32186;SDS011;18686;53.084;8.872;2024-03-25T07:10:54;57.58;;;9.07;;
32186;SDS011;18686;53.084;8.872;2024-03-25T07:13:20;53.60;;;9.25;;
32186;SDS011;18686;53.084;8.872;2024-03-25T07:15:50;53.28;;;9.13;;
32186;SDS011;18686;53.084;8.872;2024-03-25T07:18:16;55.28;;;9.32;;
32186;SDS011;18686;53.084;8.872;2024-03-25T07:20:43;39.80;;;8.30;;
32186;SDS011;18686;53.084;8.872;2024-03-25T07:23:09;52.33;;;8.43;;
32186;SDS011;18686;53.084;8.872;2024-03-25T07:25:36;33.10;;;7.40;;
32186;SDS011;18686;53.084;8.872;2024-03-25T07:28:03;53.08;;;7.43;;
32186;SDS011;18686;53.084;8.872;2024-03-25T07:30:30;52.50;;;7.88;;
32186;SDS011;18686;53.084;8.872;2024-03-25T07:32:58;40.05;;;7.70;;
32186;SDS011;18686;53.084;8.872;2024-03-25T07:35:25;35.45;;;7.00;;
32186;SDS011;18686;53.084;8.872;2024-03-25T07:37:52;50.50;;;8.05;;
32186;SDS011;18686;53.084;8.872;2024-03-25T07:40:18;39.28;;;7.65;;
32186;SDS011;18686;53.084;8.872;2024-03-25T07:42:45;39.75;;;6.43;;
32186;SDS011;18686;53.084;8.872;2024-03-25T07:45:11;38.92;;;5.85;;
32186;SDS011;18686;53.084;8.872;2024-03-25T07:47:37;31.58;;;5.90;;
32186;SDS011;18686;53.084;8.872;2024-03-25T07:50:06;37.75;;;6.18;;
32186;SDS011;18686;53.084;8.872;2024-03-25T07:52:33;31.30;;;5.30;;
32186;SDS011;18686;53.084;8.872;2024-03-25T07:55:00;23.42;;;5.07;;
32186;SDS011;18686;53.084;8.872;2024-03-25T07:57:26;31.88;;;5.82;;
32186;SDS011;18686;53.084;8.872;2024-03-25T07:59:52;27.70;;;5.03;;
32186;SDS011;18686;53.084;8.872;2024-03-25T08:02:18;33.28;;;5.18;;
32186;SDS011;18686;53.084;8.872;2024-03-25T08:04:45;30.58;;;4.20;;
32186;SDS011;18686;53.084;8.872;2024-03-25T08:07:13;28.58;;;4.10;;
32186;SDS011;18686;53.084;8.872;2024-03-25T08:09:39;25.38;;;4.28;;
32186;SDS011;18686;53.084;8.872;2024-03-25T08:12:06;28.35;;;3.90;;
32186;SDS011;18686;53.084;8.872;2024-03-25T08:14:32;33.78;;;3.38;;
32186;SDS011;18686;53.084;8.872;2024-03-25T08:16:58;19.55;;;3.33;;
32186;SDS011;18686;53.084;8.872;2024-03-25T08:19:25;25.15;;;3.78;;
32186;SDS011;18686;53.084;8.872;2024-03-25T08:21:51;21.15;;;3.30;;
32186;SDS011;18686;53.084;8.872;2024-03-25T08:24:19;24.70;;;3.40;;
32186;SDS011;18686;53.084;8.872;2024-03-25T08:26:45;35.28;;;4.50;;
32186;SDS011;18686;53.084;8.872;2024-03-25T08:29:11;27.63;;;4.65;;
32186;SDS011;18686;53.084;8.872;2024-03-25T08:31:38;26.15;;;3.65;;
32186;SDS011;18686;53.084;8.872;2024-03-25T08:34:04;21.50;;;4.03;;
32186;SDS011;18686;53.084;8.872;2024-03-25T08:36:30;23.42;;;3.78;;
32186;SDS011;18686;53.084;8.872;2024-03-25T08:38:56;28.45;;;3.70;;
32186;SDS011;18686;53.084;8.872;2024-03-25T08:41:24;15.95;;;2.83;;
32186;SDS011;18686;53.084;8.872;2024-03-25T08:43:50;28.55;;;3.53;;
32186;SDS011;18686;53.084;8.872;2024-03-25T08:46:17;12.52;;;2.03;;
32186;SDS011;18686;53.084;8.872;2024-03-25T08:48:43;17.15;;;2.63;;
32186;SDS011;18686;53.084;8.872;2024-03-25T08:51:09;16.05;;;2.60;;
32186;SDS011;18686;53.084;8.872;2024-03-25T08:53:36;16.42;;;2.83;;
32186;SDS011;18686;53.084;8.872;2024-03-25T08:56:02;14.50;;;2.42;;
32186;SDS011;18686;53.084;8.872;2024-03-25T08:58:30;16.17;;;3.10;;
32186;SDS011;18686;53.084;8.872;2024-03-25T09:00:57;17.77;;;3.05;;
32186;SDS011;18686;53.084;8.872;2024-03-25T09:03:23;12.48;;;2.33;;
32186;SDS011;18686;53.084;8.872;2024-03-25T09:05:53;17.92;;;2.45;;
32186;SDS011;18686;53.084;8.872;2024-03-25T09:08:19;14.70;;;2.75;;
32186;SDS011;18686;53.084;8.872;2024-03-25T09:10:46;17.35;;;2.75;;
32186;SDS011;18686;53.084;8.872;2024-03-25T09:13:31;10.90;;;2.08;;
32186;SDS011;18686;53.084;8.872;2024-03-25T09:15:58;9.20;;;2.15;;
32186;SDS011;18686;53.084;8.872;2024-03-25T09:18:24;11.13;;;2.20;;
32186;SDS011;18686;53.084;8.872;2024-03-25T09:20:51;15.20;;;2.55;;
32186;SDS011;18686;53.084;8.872;2024-03-25T09:23:18;11.60;;;1.95;;
32186;SDS011;18686;53.084;8.872;2024-03-25T09:25:51;8.98;;;1.88;;
32186;SDS011;18686;53.084;8.872;2024-03-25T09:28:18;9.27;;;2.10;;
32186;SDS011;18686;53.084;8.872;2024-03-25T09:30:47;10.40;;;1.80;;
32186;SDS011;18686;53.084;8.872;2024-03-25T09:33:13;10.30;;;2.08;;
32186;SDS011;18686;53.084;8.872;2024-03-25T09:35:39;8.32;;;1.52;;
32186;SDS011;18686;53.084;8.872;2024-03-25T09:38:06;8.07;;;1.65;;
32186;SDS011;18686;53.084;8.872;2024-03-25T09:40:32;10.52;;;2.00;;
32186;SDS011;18686;53.084;8.872;2024-03-25T09:43:02;9.65;;;1.80;;
32186;SDS011;18686;53.084;8.872;2024-03-25T09:45:29;10.07;;;1.90;;
32186;SDS011;18686;53.084;8.872;2024-03-25T09:47:57;12.43;;;2.10;;
32186;SDS011;18686;53.084;8.872;2024-03-25T09:50:23;10.20;;;1.88;;
32186;SDS011;18686;53.084;8.872;2024-03-25T09:52:50;9.95;;;2.08;;
32186;SDS011;18686;53.084;8.872;2024-03-25T09:55:17;10.70;;;2.28;;
32186;SDS011;18686;53.084;8.872;2024-03-25T09:57:44;8.52;;;1.60;;
32186;SDS011;18686;53.084;8.872;2024-03-25T10:00:11;8.68;;;1.90;;
32186;SDS011;18686;53.084;8.872;2024-03-25T10:02:38;7.80;;;2.03;;
32186;SDS011;18686;53.084;8.872;2024-03-25T10:05:07;9.85;;;1.60;;
32186;SDS011;18686;53.084;8.872;2024-03-25T10:07:34;8.63;;;1.50;;
32186;SDS011;18686;53.084;8.872;2024-03-25T10:10:03;12.38;;;1.67;;
32186;SDS011;18686;53.084;8.872;2024-03-25T10:12:29;9.25;;;1.70;;
32186;SDS011;18686;53.084;8.872;2024-03-25T10:14:56;9.55;;;2.20;;
32186;SDS011;18686;53.084;8.872;2024-03-25T10:17:23;10.07;;;1.90;;
32186;SDS011;18686;53.084;8.872;2024-03-25T10:19:49;15.25;;;1.92;;
32186;SDS011;18686;53.084;8.872;2024-03-25T10:22:17;12.65;;;2.10;;
32186;SDS011;18686;53.084;8.872;2024-03-25T10:24:44;14.63;;;2.13;;
32186;SDS011;18686;53.084;8.872;2024-03-25T10:27:17;12.98;;;2.33;;
32186;SDS011;18686;53.084;8.872;2024-03-25T10:29:44;15.10;;;3.43;;
32186;SDS011;18686;53.084;8.872;2024-03-25T10:32:10;8.18;;;1.55;;
32186;SDS011;18686;53.084;8.872;2024-03-25T10:34:38;7.63;;;1.75;;
32186;SDS011;18686;53.084;8.872;2024-03-25T10:37:05;10.05;;;2.03;;
32186;SDS011;18686;53.084;8.872;2024-03-25T10:39:37;9.50;;;1.77;;
32186;SDS011;18686;53.084;8.872;2024-03-25T10:42:07;6.50;;;1.25;;
32186;SDS011;18686;53.084;8.872;2024-03-25T10:44:38;9.88;;;2.05;;
32186;SDS011;18686;53.084;8.872;2024-03-25T10:47:05;8.88;;;2.28;;
32186;SDS011;18686;53.084;8.872;2024-03-25T10:49:34;8.57;;;1.80;;
32186;SDS011;18686;53.084;8.872;2024-03-25T10:52:09;12.43;;;1.90;;
32186;SDS011;18686;53.084;8.872;2024-03-25T10:54:39;8.10;;;1.77;;
32186;SDS011;18686;53.084;8.872;2024-03-25T10:57:08;9.50;;;1.50;;
32186;SDS011;18686;53.084;8.872;2024-03-25T10:59:36;9.25;;;1.83;;
32186;SDS011;18686;53.084;8.872;2024-03-25T11:02:04;6.80;;;1.73;;
32186;SDS011;18686;53.084;8.872;2024-03-25T11:04:30;11.20;;;2.45;;
32186;SDS011;18686;53.084;8.872;2024-03-25T11:07:06;8.90;;;1.73;;
32186;SDS011;18686;53.084;8.872;2024-03-25T11:09:35;7.53;;;1.55;;
32186;SDS011;18686;53.084;8.872;2024-03-25T11:12:02;7.85;;;1.42;;
32186;SDS011;18686;53.084;8.872;2024-03-25T11:14:29;10.07;;;2.40;;
32186;SDS011;18686;53.084;8.872;2024-03-25T11:16:55;11.32;;;1.98;;
32186;SDS011;18686;53.084;8.872;2024-03-25T11:19:25;7.63;;;1.65;;
32186;SDS011;18686;53.084;8.872;2024-03-25T11:21:52;8.32;;;1.77;;
32186;SDS011;18686;53.084;8.872;2024-03-25T11:24:26;5.63;;;1.45;;
32186;SDS011;18686;53.084;8.872;2024-03-25T11:29:21;11.27;;;1.77;;
32186;SDS011;18686;53.084;8.872;2024-03-25T11:31:48;7.82;;;1.65;;
32186;SDS011;18686;53.084;8.872;2024-03-25T11:34:18;6.03;;;1.30;;
32186;SDS011;18686;53.084;8.872;2024-03-25T11:36:44;8.23;;;1.17;;
32186;SDS011;18686;53.084;8.872;2024-03-25T11:39:11;6.20;;;1.33;;
32186;SDS011;18686;53.084;8.872;2024-03-25T11:41:38;9.75;;;1.80;;
32186;SDS011;18686;53.084;8.872;2024-03-25T11:44:05;6.38;;;1.42;;
32186;SDS011;18686;53.084;8.872;2024-03-25T11:46:35;6.85;;;1.30;;
32186;SDS011;18686;53.084;8.872;2024-03-25T11:49:02;7.28;;;1.60;;
32186;SDS011;18686;53.084;8.872;2024-03-25T11:51:29;3.55;;;1.17;;
32186;SDS011;18686;53.084;8.872;2024-03-25T11:53:56;6.60;;;1.35;;
32186;SDS011;18686;53.084;8.872;2024-03-25T11:56:22;5.60;;;1.23;;
32186;SDS011;18686;53.084;8.872;2024-03-25T11:58:48;5.50;;;1.63;;
32186;SDS011;18686;53.084;8.872;2024-03-25T12:01:15;5.55;;;1.38;;
32186;SDS011;18686;53.084;8.872;2024-03-25T12:03:43;3.75;;;1.35;;
32186;SDS011;18686;53.084;8.872;2024-03-25T12:06:10;6.13;;;1.40;;
32186;SDS011;18686;53.084;8.872;2024-03-25T12:08:36;6.03;;;1.40;;
32186;SDS011;18686;53.084;8.872;2024-03-25T12:11:02;6.00;;;1.50;;
32186;SDS011;18686;53.084;8.872;2024-03-25T12:13:44;3.80;;;1.40;;
32186;SDS011;18686;53.084;8.872;2024-03-25T12:16:10;4.15;;;1.52;;
32186;SDS011;18686;53.084;8.872;2024-03-25T12:18:39;7.07;;;1.80;;
32186;SDS011;18686;53.084;8.872;2024-03-25T12:21:08;6.95;;;1.60;;
32186;SDS011;18686;53.084;8.872;2024-03-25T12:23:35;6.32;;;1.40;;
32186;SDS011;18686;53.084;8.872;2024-03-25T12:26:02;3.95;;;0.98;;
32186;SDS011;18686;53.084;8.872;2024-03-25T12:28:30;6.40;;;1.65;;
32186;SDS011;18686;53.084;8.872;2024-03-25T12:30:57;7.53;;;1.50;;
32186;SDS011;18686;53.084;8.872;2024-03-25T12:33:23;4.78;;;1.30;;
32186;SDS011;18686;53.084;8.872;2024-03-25T12:35:50;5.18;;;1.40;;
32186;SDS011;18686;53.084;8.872;2024-03-25T12:38:25;5.50;;;1.40;;
32186;SDS011;18686;53.084;8.872;2024-03-25T12:40:53;6.38;;;1.33;;
32186;SDS011;18686;53.084;8.872;2024-03-25T12:43:20;6.88;;;1.63;;
32186;SDS011;18686;53.084;8.872;2024-03-25T12:45:46;3.97;;;1.17;;
32186;SDS011;18686;53.084;8.872;2024-03-25T12:48:12;4.47;;;1.50;;
32186;SDS011;18686;53.084;8.872;2024-03-25T12:50:39;4.30;;;1.73;;
32186;SDS011;18686;53.084;8.872;2024-03-25T12:53:06;7.50;;;1.27;;
32186;SDS011;18686;53.084;8.872;2024-03-25T12:55:33;5.70;;;1.50;;
32186;SDS011;18686;53.084;8.872;2024-03-25T12:57:59;2.90;;;1.10;;
32186;SDS011;18686;53.084;8.872;2024-03-25T13:00:26;5.78;;;1.40;;
32186;SDS011;18686;53.084;8.872;2024-03-25T13:02:52;6.15;;;1.50;;
32186;SDS011;18686;53.084;8.872;2024-03-25T13:05:18;3.83;;;1.20;;
32186;SDS011;18686;53.084;8.872;2024-03-25T13:07:45;4.55;;;1.40;;
32186;SDS011;18686;53.084;8.872;2024-03-25T13:10:11;5.30;;;1.40;;
32186;SDS011;18686;53.084;8.872;2024-03-25T13:12:38;4.30;;;1.20;;
32186;SDS011;18686;53.084;8.872;2024-03-25T13:15:05;5.70;;;1.15;;
32186;SDS011;18686;53.084;8.872;2024-03-25T13:17:32;4.40;;;1.15;;
32186;SDS011;18686;53.084;8.872;2024-03-25T13:19:59;3.63;;;1.20;;
32186;SDS011;18686;53.084;8.872;2024-03-25T13:22:25;4.90;;;1.10;;
32186;SDS011;18686;53.084;8.872;2024-03-25T13:24:51;7.30;;;1.17;;
32186;SDS011;18686;53.084;8.872;2024-03-25T13:27:18;7.13;;;1.65;;
32186;SDS011;18686;53.084;8.872;2024-03-25T13:29:47;4.10;;;0.95;;
32186;SDS011;18686;53.084;8.872;2024-03-25T13:32:13;6.25;;;1.20;;
32186;SDS011;18686;53.084;8.872;2024-03-25T13:34:39;7.25;;;1.95;;
32186;SDS011;18686;53.084;8.872;2024-03-25T13:37:05;7.40;;;1.38;;
32186;SDS011;18686;53.084;8.872;2024-03-25T13:39:32;7.15;;;1.30;;
32186;SDS011;18686;53.084;8.872;2024-03-25T13:41:58;7.70;;;1.95;;
32186;SDS011;18686;53.084;8.872;2024-03-25T13:44:24;6.13;;;1.67;;
32186;SDS011;18686;53.084;8.872;2024-03-25T13:46:52;5.03;;;1.60;;
32186;SDS011;18686;53.084;8.872;2024-03-25T13:49:18;6.88;;;1.33;;
32186;SDS011;18686;53.084;8.872;2024-03-25T13:51:44;6.55;;;1.73;;
32186;SDS011;18686;53.084;8.872;2024-03-25T13:54:11;5.68;;;1.30;;
32186;SDS011;18686;53.084;8.872;2024-03-25T13:56:37;4.80;;;1.17;;
32186;SDS011;18686;53.084;8.872;2024-03-25T13:59:03;3.70;;;1.08;;
32186;SDS011;18686;53.084;8.872;2024-03-25T14:01:30;3.55;;;1.00;;
32186;SDS011;18686;53.084;8.872;2024-03-25T14:03:57;5.47;;;1.20;;
32186;SDS011;18686;53.084;8.872;2024-03-25T14:06:24;7.50;;;1.20;;
32186;SDS011;18686;53.084;8.872;2024-03-25T14:08:50;6.65;;;1.38;;
32186;SDS011;18686;53.084;8.872;2024-03-25T14:11:16;5.15;;;1.33;;
32186;SDS011;18686;53.084;8.872;2024-03-25T14:13:42;9.30;;;2.55;;
32186;SDS011;18686;53.084;8.872;2024-03-25T14:16:09;8.38;;;1.55;;
32186;SDS011;18686;53.084;8.872;2024-03-25T14:18:35;6.10;;;1.30;;
32186;SDS011;18686;53.084;8.872;2024-03-25T14:21:03;5.82;;;1.00;;
32186;SDS011;18686;53.084;8.872;2024-03-25T14:23:29;5.22;;;1.35;;
32186;SDS011;18686;53.084;8.872;2024-03-25T14:25:56;3.30;;;0.90;;
32186;SDS011;18686;53.084;8.872;2024-03-25T14:28:22;6.65;;;1.27;;
32186;SDS011;18686;53.084;8.872;2024-03-25T14:30:48;4.28;;;1.10;;
32186;SDS011;18686;53.084;8.872;2024-03-25T14:33:15;4.10;;;0.80;;
32186;SDS011;18686;53.084;8.872;2024-03-25T14:35:41;4.38;;;0.95;;
32186;SDS011;18686;53.084;8.872;2024-03-25T14:38:09;2.90;;;1.10;;